createdAt,value
2018-07-10T00:02:25.037Z,49.07
2018-07-10T00:07:13.275Z,49.61
2018-07-10T00:12:04.979Z,50.00
2018-07-10T00:14:34.967Z,49.28
2018-07-10T00:17:05.589Z,50.02
2018-07-10T00:19:35.680Z,49.85
2018-07-10T00:22:06.109Z,49.31
2018-07-10T00:24:36.268Z,49.99
2018-07-10T00:27:06.292Z,49.29
2018-07-10T00:29:36.888Z,49.54
2018-07-10T00:32:06.933Z,49.29
2018-07-10T00:34:37.054Z,49.61
2018-07-10T00:37:07.265Z,48.99
2018-07-10T00:39:37.710Z,49.43
2018-07-10T00:42:08.002Z,49.64
2018-07-10T00:44:38.303Z,49.59
2018-07-10T00:47:08.765Z,49.52
2018-07-10T00:49:38.643Z,48.93
2018-07-10T00:52:08.719Z,49.09
2018-07-10T00:54:38.954Z,49.26
2018-07-10T00:57:09.169Z,49.36
2018-07-10T00:59:39.870Z,49.45
2018-07-10T01:02:09.946Z,49.33
2018-07-10T01:04:40.245Z,49.28
2018-07-10T01:07:10.394Z,48.99
2018-07-10T01:09:41.031Z,48.75
2018-07-10T01:12:10.914Z,49.10
2018-07-10T01:14:41.149Z,49.16
2018-07-10T01:17:11.768Z,48.70
2018-07-10T01:19:42.113Z,49.18
2018-07-10T01:22:12.509Z,49.33
2018-07-10T01:24:42.782Z,48.84
2018-07-10T01:27:13.170Z,49.42
2018-07-10T01:29:48.616Z,49.35
2018-07-10T01:32:18.553Z,49.69
2018-07-10T01:34:49.292Z,48.91
2018-07-10T01:37:26.416Z,49.73
2018-07-10T01:39:56.998Z,49.04
2018-07-10T01:42:27.339Z,49.71
2018-07-10T01:44:57.485Z,49.35
2018-07-10T01:47:27.538Z,49.97
2018-07-10T01:49:58.304Z,49.83
2018-07-10T01:52:28.535Z,49.71
2018-07-10T01:54:58.758Z,49.35
2018-07-10T01:57:29.195Z,49.64
2018-07-10T01:59:59.474Z,49.65
2018-07-10T02:02:29.637Z,48.81
2018-07-10T02:05:00.479Z,49.55
2018-07-10T02:07:31.885Z,48.97
2018-07-10T02:10:02.680Z,49.08
2018-07-10T02:12:32.866Z,49.42
2018-07-10T02:15:02.653Z,49.04
2018-07-10T02:17:33.621Z,48.82
2018-07-10T02:20:04.347Z,48.55
2018-07-10T02:22:41.125Z,48.51
2018-07-10T02:25:11.934Z,49.46
2018-07-10T02:27:42.972Z,49.13
2018-07-10T02:30:13.418Z,49.90
2018-07-10T02:32:43.529Z,49.17
2018-07-10T02:35:14.294Z,49.43
2018-07-10T02:37:46.350Z,50.17
2018-07-10T02:40:16.446Z,50.34
2018-07-10T02:42:46.646Z,50.49
2018-07-10T02:45:16.803Z,50.22
2018-07-10T02:47:47.025Z,50.42
2018-07-10T02:50:17.279Z,50.30
2018-07-10T02:52:47.213Z,50.14
2018-07-10T02:55:18.052Z,51.13
2018-07-10T02:57:48.354Z,50.60
2018-07-10T03:00:18.738Z,50.57
2018-07-10T03:02:49.612Z,50.79
2018-07-10T03:05:21.096Z,51.78
2018-07-10T03:07:51.187Z,51.39
2018-07-10T03:10:21.406Z,51.06
2018-07-10T03:12:52.407Z,52.07
2018-07-10T03:15:22.570Z,52.10
2018-07-10T03:17:53.581Z,52.20
2018-07-10T03:20:23.731Z,52.03
2018-07-10T03:22:54.422Z,51.69
2018-07-10T03:25:24.583Z,51.94
2018-07-10T03:27:54.837Z,52.26
2018-07-10T03:30:25.009Z,51.81
2018-07-10T03:32:55.433Z,52.04
2018-07-10T03:35:25.872Z,52.44
2018-07-10T03:37:56.532Z,52.60
2018-07-10T03:40:29.279Z,52.19
2018-07-10T03:43:00.404Z,53.04
2018-07-10T03:45:30.549Z,52.45
2018-07-10T03:48:00.783Z,52.34
2018-07-10T03:50:33.120Z,52.28
2018-07-10T03:53:03.766Z,52.76
2018-07-10T03:55:37.331Z,52.05
2018-07-10T03:58:08.073Z,52.54
2018-07-10T04:00:38.390Z,51.76
2018-07-10T04:03:08.334Z,51.30
2018-07-10T04:05:38.464Z,50.99
2018-07-10T04:08:09.656Z,50.95
2018-07-10T04:10:39.554Z,50.75
2018-07-10T04:13:15.829Z,50.99
2018-07-10T04:15:47.713Z,50.60
2018-07-10T04:18:21.764Z,50.68
2018-07-10T04:21:12.593Z,50.55
2018-07-10T04:23:44.429Z,50.52
2018-07-10T04:26:18.196Z,49.82
2018-07-10T04:28:57.258Z,49.83
2018-07-10T04:31:41.128Z,49.65
2018-07-10T04:34:11.941Z,49.71
2018-07-10T04:36:42.163Z,50.00
2018-07-10T04:39:12.241Z,49.97
2018-07-10T04:41:43.551Z,49.71
2018-07-10T04:44:14.871Z,49.42
2018-07-10T04:46:51.029Z,50.03
2018-07-10T04:49:33.480Z,49.84
2018-07-10T04:52:16.314Z,49.76
2018-07-10T04:55:07.779Z,50.00
2018-07-10T04:57:46.506Z,49.95
2018-07-10T05:00:16.710Z,49.18
2018-07-10T05:02:47.717Z,49.24
2018-07-10T05:05:18.982Z,49.53
2018-07-10T05:07:49.125Z,48.92
2018-07-10T05:10:19.660Z,49.27
2018-07-10T05:12:49.757Z,49.30
2018-07-10T05:15:20.355Z,49.37
2018-07-10T05:17:55.668Z,49.34
2018-07-10T05:20:27.557Z,48.71
2018-07-10T05:22:57.491Z,49.44
2018-07-10T05:25:27.782Z,49.01
2018-07-10T05:27:58.278Z,48.53
2018-07-10T05:30:29.531Z,48.61
2018-07-10T05:32:59.754Z,49.12
2018-07-10T05:35:29.896Z,48.16
2018-07-10T05:38:04.974Z,48.13
2018-07-10T05:40:34.991Z,48.08
2018-07-10T05:43:10.489Z,48.14
2018-07-10T05:45:40.534Z,48.59
2018-07-10T05:48:11.335Z,48.73
2018-07-10T05:50:41.745Z,48.58
2018-07-10T05:53:12.642Z,48.79
2018-07-10T05:55:47.231Z,49.28
2018-07-10T05:58:23.947Z,48.80
2018-07-10T06:00:54.409Z,48.80
2018-07-10T06:03:24.790Z,48.96
2018-07-10T06:05:57.868Z,49.24
2018-07-10T06:08:28.112Z,49.52
2018-07-10T06:10:58.408Z,49.29
2018-07-10T06:13:28.605Z,48.82
2018-07-10T06:15:58.769Z,50.04
2018-07-10T06:18:29.766Z,49.83
2018-07-10T06:21:00.389Z,49.30
2018-07-10T06:23:36.541Z,49.23
2018-07-10T06:26:07.655Z,49.59
2018-07-10T06:28:37.664Z,49.09
2018-07-10T06:31:13.274Z,49.40
2018-07-10T06:33:51.280Z,48.61
2018-07-10T06:36:28.096Z,49.03
2018-07-10T06:39:15.328Z,49.16
2018-07-10T06:41:51.656Z,50.32
2018-07-10T06:44:22.344Z,50.79
2018-07-10T06:46:55.844Z,49.68
2018-07-10T06:49:36.814Z,48.63
2018-07-10T06:52:10.215Z,47.71
2018-07-10T06:55:21.225Z,47.70
2018-07-10T06:57:54.329Z,47.90
2018-07-10T07:00:24.971Z,47.08
2018-07-10T07:02:55.078Z,47.76
2018-07-10T07:05:25.339Z,48.22
2018-07-10T07:07:55.676Z,47.67
2018-07-10T07:10:26.537Z,47.93
2018-07-10T07:12:57.394Z,48.22
2018-07-10T07:15:27.614Z,48.66
2018-07-10T07:17:57.772Z,48.50
2018-07-10T07:20:27.866Z,48.12
2018-07-10T07:22:58.279Z,47.37
2018-07-10T07:25:28.744Z,48.02
2018-07-10T07:27:59.754Z,46.80
2018-07-10T07:30:30.192Z,46.79
2018-07-10T07:33:00.983Z,46.29
2018-07-10T07:35:31.346Z,46.76
2018-07-10T07:38:01.569Z,46.64
2018-07-10T07:40:31.810Z,45.94
2018-07-10T07:43:01.859Z,45.41
2018-07-10T07:45:32.406Z,45.30
2018-07-10T07:48:02.453Z,45.80
2018-07-10T07:50:32.611Z,44.04
2018-07-10T07:53:03.099Z,44.36
2018-07-10T07:55:34.458Z,44.79
2018-07-10T07:58:04.873Z,43.91
2018-07-10T08:00:35.203Z,43.83
2018-07-10T08:03:05.727Z,44.63
2018-07-10T08:05:35.810Z,43.93
2018-07-10T08:08:06.148Z,44.32
2018-07-10T08:10:36.316Z,44.22
2018-07-10T08:13:06.603Z,44.21
2018-07-10T08:15:37.300Z,44.11
2018-07-10T08:18:07.751Z,44.58
2018-07-10T08:20:38.345Z,43.42
2018-07-10T08:23:09.401Z,43.49
2018-07-10T08:25:39.476Z,43.50
2018-07-10T08:28:10.897Z,44.00
2018-07-10T08:30:40.800Z,43.55
2018-07-10T08:33:11.056Z,42.68
2018-07-10T08:35:41.213Z,42.44
2018-07-10T08:38:11.873Z,42.14
2018-07-10T08:40:41.880Z,42.53
2018-07-10T08:43:12.088Z,42.32
2018-07-10T08:45:42.439Z,41.70
2018-07-10T08:48:17.941Z,42.69
2018-07-10T08:50:48.213Z,42.97
2018-07-10T08:53:18.882Z,42.98
2018-07-10T08:55:49.436Z,41.94
2018-07-10T08:58:19.785Z,42.69
2018-07-10T09:00:49.815Z,42.09
2018-07-10T09:03:20.316Z,42.26
2018-07-10T09:05:50.526Z,41.48
2018-07-10T09:08:20.638Z,41.33
2018-07-10T09:10:51.087Z,40.81
2018-07-10T09:13:21.370Z,41.05
2018-07-10T09:15:51.530Z,40.73
2018-07-10T09:18:21.504Z,40.89
2018-07-10T09:20:52.636Z,40.36
2018-07-10T09:23:22.804Z,39.84
2018-07-10T09:25:57.621Z,39.62
2018-07-10T09:28:34.696Z,40.64
2018-07-10T09:31:06.047Z,39.99
2018-07-10T09:33:36.531Z,39.39
2018-07-10T09:36:06.905Z,39.19
2018-07-10T09:38:37.189Z,39.46
2018-07-10T09:41:08.598Z,39.58
2018-07-10T09:43:38.805Z,39.82
2018-07-10T09:46:09.118Z,39.54
2018-07-10T09:48:39.250Z,39.35
2018-07-10T09:51:10.082Z,40.40
2018-07-10T09:53:40.293Z,40.15
2018-07-10T09:56:11.345Z,40.54
2018-07-10T09:58:41.599Z,41.04
2018-07-10T10:01:16.954Z,40.71
2018-07-10T10:03:47.050Z,40.73
2018-07-10T10:06:17.866Z,40.26
2018-07-10T10:08:47.818Z,40.53
2018-07-10T10:14:14.134Z,40.10
2018-07-10T10:16:44.568Z,40.87
2018-07-10T10:19:14.793Z,40.92
2018-07-10T10:21:45.018Z,40.08
2018-07-10T10:24:15.272Z,40.23
2018-07-10T10:26:45.518Z,41.05
2018-07-10T10:29:15.698Z,40.62
2018-07-10T10:31:45.849Z,40.58
2018-07-10T10:34:16.321Z,40.74
2018-07-10T10:36:47.007Z,40.75
2018-07-10T10:39:17.438Z,40.88
2018-07-10T10:41:47.606Z,40.87
2018-07-10T10:44:17.730Z,40.53
2018-07-10T10:46:47.947Z,40.89
2018-07-10T10:49:19.041Z,41.86
2018-07-10T10:51:49.341Z,41.98
2018-07-10T10:54:19.584Z,41.60
2018-07-10T10:56:49.969Z,42.12
2018-07-10T10:59:20.078Z,42.74
2018-07-10T11:01:50.215Z,42.64
2018-07-10T11:04:20.443Z,42.53
2018-07-10T11:06:50.661Z,42.43
2018-07-10T11:09:20.790Z,41.80
2018-07-10T11:11:50.906Z,41.74
2018-07-10T11:14:21.424Z,41.79
2018-07-10T11:16:51.851Z,42.59
2018-07-10T11:19:31.410Z,43.80
2018-07-10T11:22:06.885Z,45.79
2018-07-10T11:25:14.547Z,46.79
2018-07-10T11:28:05.544Z,47.69
2018-07-10T11:30:36.182Z,48.79
2018-07-10T11:33:07.366Z,50.11
2018-07-10T11:35:38.081Z,51.17
2018-07-10T11:38:11.026Z,50.85
2018-07-10T11:40:42.997Z,52.51
2018-07-10T11:43:13.409Z,53.13
2018-07-10T11:45:43.852Z,54.15
2018-07-10T11:48:14.138Z,53.06
2018-07-10T11:50:45.044Z,52.55
2018-07-10T11:53:15.235Z,53.22
2018-07-10T11:55:45.295Z,54.21
2018-07-10T11:58:15.716Z,54.38
2018-07-10T12:00:45.846Z,55.73
2018-07-10T12:03:15.821Z,57.42
2018-07-10T12:05:46.299Z,58.20
2018-07-10T12:08:16.492Z,59.21
2018-07-10T12:10:52.506Z,60.11
2018-07-10T12:13:22.471Z,56.53
2018-07-10T12:15:52.789Z,55.16
2018-07-10T12:18:23.310Z,56.51
2018-07-10T12:20:53.542Z,59.66
2018-07-10T12:23:23.743Z,61.20
2018-07-10T12:25:54.024Z,61.29
2018-07-10T12:28:24.311Z,60.93
2018-07-10T12:30:54.523Z,60.91
2018-07-10T12:33:24.631Z,61.36
2018-07-10T12:35:55.406Z,61.59
2018-07-10T12:38:25.715Z,63.14
2018-07-10T12:40:55.951Z,62.68
2018-07-10T12:43:26.171Z,63.21
2018-07-10T12:45:56.627Z,63.19
2018-07-10T12:48:27.035Z,62.69
2018-07-10T12:50:57.221Z,63.23
2018-07-10T12:53:27.725Z,63.79
2018-07-10T12:56:00.576Z,64.25
2018-07-10T12:58:31.709Z,64.77
2018-07-10T13:01:01.906Z,65.47
2018-07-10T13:03:32.147Z,64.76
2018-07-10T13:06:02.892Z,65.91
2018-07-10T13:08:33.187Z,65.23
2018-07-10T13:11:03.468Z,65.38
2018-07-10T13:13:33.660Z,65.57
2018-07-10T13:16:03.804Z,66.21
2018-07-10T13:18:34.633Z,66.68
2018-07-10T13:21:05.374Z,66.36
2018-07-10T13:23:35.885Z,66.97
2018-07-10T13:26:06.089Z,66.79
2018-07-10T13:28:36.916Z,66.71
2018-07-10T13:31:07.499Z,68.00
2018-07-10T13:33:37.934Z,68.58
2018-07-10T13:36:08.339Z,68.89
2018-07-10T13:38:38.949Z,68.63
2018-07-10T13:41:09.500Z,68.86
2018-07-10T13:43:39.927Z,68.75
2018-07-10T13:46:10.532Z,68.34
2018-07-10T13:48:40.981Z,68.88
2018-07-10T13:51:11.353Z,69.27
2018-07-10T13:53:41.697Z,69.42
2018-07-10T13:56:12.303Z,69.64
2018-07-10T13:58:42.594Z,68.48
2018-07-10T14:01:12.760Z,68.51
2018-07-10T14:03:43.252Z,68.84
2018-07-10T14:06:13.773Z,68.98
2018-07-10T14:08:44.096Z,68.82
2018-07-10T14:11:15.014Z,67.83
2018-07-10T14:13:45.299Z,68.61
2018-07-10T14:16:16.126Z,68.56
2018-07-10T14:18:46.703Z,67.50
2018-07-10T14:21:17.256Z,67.82
2018-07-10T14:23:47.407Z,67.86
2018-07-10T14:26:17.624Z,67.49
2018-07-10T14:28:47.854Z,67.71
2018-07-10T14:31:18.309Z,67.28
2018-07-10T14:33:49.214Z,66.70
2018-07-10T14:36:19.506Z,66.85
2018-07-10T14:38:49.817Z,66.56
2018-07-10T14:41:19.729Z,67.16
2018-07-10T14:43:49.903Z,66.62
2018-07-10T14:46:22.692Z,66.70
2018-07-10T14:48:57.354Z,67.36
2018-07-10T14:51:31.605Z,66.27
2018-07-10T14:54:01.709Z,67.26
2018-07-10T14:56:31.758Z,66.67
2018-07-10T14:59:01.971Z,67.03
2018-07-10T15:01:32.262Z,66.06
2018-07-10T15:04:02.530Z,65.52
2018-07-10T15:06:32.707Z,66.32
2018-07-10T15:09:02.759Z,66.54
2018-07-10T15:11:32.721Z,67.46
2018-07-10T15:14:05.537Z,67.28
2018-07-10T15:16:40.638Z,66.91
2018-07-10T15:19:11.302Z,66.98
2018-07-10T15:21:41.583Z,67.49
2018-07-10T15:24:11.748Z,68.31
2018-07-10T15:26:42.361Z,67.92
2018-07-10T15:29:16.624Z,68.72
2018-07-10T15:31:46.580Z,68.39
2018-07-10T15:34:16.731Z,68.07
2018-07-10T15:36:47.017Z,68.45
2018-07-10T15:39:17.513Z,68.89
2018-07-10T15:41:48.328Z,69.26
2018-07-10T15:44:19.227Z,69.39
2018-07-10T15:46:49.307Z,69.85
2018-07-10T15:49:20.134Z,71.17
2018-07-10T15:51:50.063Z,71.48
2018-07-10T15:54:20.319Z,71.06
2018-07-10T15:56:50.337Z,71.31
2018-07-10T15:59:20.699Z,71.35
2018-07-10T16:01:50.882Z,72.32
2018-07-10T16:04:20.940Z,72.27
2018-07-10T16:06:50.810Z,72.89
2018-07-10T16:09:21.169Z,73.32
2018-07-10T16:11:57.083Z,73.08
2018-07-10T16:14:28.718Z,73.25
2018-07-10T16:16:58.688Z,73.84
2018-07-10T16:19:35.322Z,74.12
2018-07-10T16:22:11.485Z,73.79
2018-07-10T16:24:46.865Z,72.89
2018-07-10T16:27:21.845Z,73.26
2018-07-10T16:29:52.336Z,72.42
2018-07-10T16:32:22.740Z,71.76
2018-07-10T16:34:53.563Z,71.74
2018-07-10T16:37:23.781Z,71.46
2018-07-10T16:39:54.035Z,71.44
2018-07-10T16:42:29.018Z,71.33
2018-07-10T16:44:59.095Z,71.15
2018-07-10T16:47:33.938Z,71.04
2018-07-10T16:50:07.046Z,70.63
2018-07-10T16:52:58.865Z,70.01
2018-07-10T16:55:29.304Z,69.77
2018-07-10T16:57:59.559Z,69.37
2018-07-10T17:00:30.798Z,69.93
2018-07-10T17:03:00.698Z,69.82
2018-07-10T17:05:30.872Z,69.79
2018-07-10T17:08:00.791Z,69.51
2018-07-10T17:10:31.399Z,68.83
2018-07-10T17:13:01.726Z,69.01
2018-07-10T17:15:31.701Z,68.49
2018-07-10T17:18:02.221Z,68.49
2018-07-10T17:20:32.389Z,68.54
2018-07-10T17:23:04.056Z,68.02
2018-07-10T17:25:34.077Z,68.44
2018-07-10T17:28:04.218Z,68.22
2018-07-10T17:30:34.766Z,68.39
2018-07-10T17:33:04.886Z,69.68
2018-07-10T17:35:35.203Z,69.09
2018-07-10T17:38:05.305Z,69.31
2018-07-10T17:40:35.632Z,70.26
2018-07-10T17:43:05.666Z,70.28
2018-07-10T17:45:35.887Z,71.04
2018-07-10T17:48:06.111Z,71.12
2018-07-10T17:50:36.616Z,70.84
2018-07-10T17:53:06.834Z,71.09
2018-07-10T17:55:37.807Z,70.95
2018-07-10T17:58:07.907Z,71.29
2018-07-10T18:00:38.077Z,71.38
2018-07-10T18:03:09.322Z,72.22
2018-07-10T18:05:39.607Z,71.57
2018-07-10T18:08:09.840Z,72.29
2018-07-10T18:10:40.128Z,72.20
2018-07-10T18:13:10.603Z,72.10
2018-07-10T18:15:41.026Z,71.95
2018-07-10T18:18:11.415Z,72.03
2018-07-10T18:20:41.831Z,71.14
2018-07-10T18:23:12.087Z,70.83
2018-07-10T18:25:42.588Z,71.42
2018-07-10T18:28:12.426Z,71.65
2018-07-10T18:30:44.102Z,71.08
2018-07-10T18:33:14.502Z,70.90
2018-07-10T18:35:45.141Z,71.39
2018-07-10T18:38:15.142Z,70.99
2018-07-10T18:40:45.472Z,71.37
2018-07-10T18:43:16.022Z,72.73
2018-07-10T18:45:46.562Z,72.46
2018-07-10T18:48:21.747Z,72.86
2018-07-10T18:50:51.945Z,73.50
2018-07-10T18:53:22.022Z,73.90
2018-07-10T18:55:53.461Z,73.48
2018-07-10T18:58:34.048Z,73.79
2018-07-10T19:01:13.589Z,74.59
2018-07-10T19:03:46.282Z,74.67
2018-07-10T19:06:21.021Z,74.48
2018-07-10T19:08:51.462Z,74.59
2018-07-10T19:11:27.055Z,75.07
2018-07-10T19:14:01.393Z,75.59
2018-07-10T19:16:32.280Z,76.35
2018-07-10T19:19:04.319Z,75.97
2018-07-10T19:21:40.186Z,76.55
2018-07-10T19:24:16.638Z,76.13
2018-07-10T19:26:48.507Z,76.70
2018-07-10T19:29:28.600Z,75.75
2018-07-10T19:31:58.698Z,76.31
2018-07-10T19:34:28.735Z,75.91
2018-07-10T19:36:59.596Z,76.02
2018-07-10T19:39:29.843Z,75.91
2018-07-10T19:42:00.875Z,76.64
2018-07-10T19:44:31.850Z,76.28
2018-07-10T19:47:02.210Z,75.84
2018-07-10T19:49:34.707Z,76.35
2018-07-10T19:52:05.420Z,76.38
2018-07-10T19:54:35.803Z,76.38
2018-07-10T19:57:06.504Z,76.05
2018-07-10T19:59:37.299Z,75.45
2018-07-10T20:02:07.269Z,75.44
2018-07-10T20:04:47.659Z,75.66
2018-07-10T20:07:22.227Z,76.03
2018-07-10T20:09:56.963Z,75.50
2018-07-10T20:12:39.391Z,75.53
2018-07-10T20:15:36.492Z,76.11
2018-07-10T20:18:16.261Z,75.52
2018-07-10T20:20:56.765Z,76.06
2018-07-10T20:24:37.722Z,75.85
2018-07-10T20:27:53.379Z,76.04
2018-07-10T20:30:31.812Z,75.77
2018-07-10T20:33:27.653Z,76.65
2018-07-10T20:36:01.983Z,76.48
2018-07-10T20:38:32.179Z,76.19
2018-07-10T20:41:04.145Z,76.66
2018-07-10T20:43:38.765Z,76.53
2018-07-10T20:46:11.088Z,76.56
2018-07-10T20:49:01.371Z,76.19
2018-07-10T20:51:39.112Z,76.21
2018-07-10T20:54:16.158Z,75.71
2018-07-10T20:56:58.014Z,76.14
2018-07-10T20:59:35.760Z,75.55
2018-07-10T21:02:09.076Z,75.61
2018-07-10T21:04:46.796Z,75.46
2018-07-10T21:07:30.474Z,75.46
2018-07-10T21:10:11.693Z,75.44
2018-07-10T21:13:02.223Z,75.48
2018-07-10T21:15:42.712Z,75.40
2018-07-10T21:18:37.091Z,75.61
2018-07-10T21:21:18.184Z,75.33
2018-07-10T21:23:57.603Z,75.33
2018-07-10T21:26:35.504Z,75.75
2018-07-10T21:29:41.685Z,75.97
2018-07-10T21:32:35.790Z,74.66
2018-07-10T21:35:09.636Z,75.28
2018-07-10T21:38:18.630Z,75.31
2018-07-10T21:41:04.759Z,75.02
2018-07-10T21:44:44.056Z,75.32
2018-07-10T21:47:24.333Z,75.37
2018-07-10T21:49:55.783Z,75.25
2018-07-10T21:52:25.778Z,75.49
2018-07-10T21:54:56.241Z,75.67
2018-07-10T21:57:31.183Z,75.82
2018-07-10T22:00:04.215Z,76.31
2018-07-10T22:02:34.126Z,76.09
2018-07-10T22:05:04.023Z,76.04
2018-07-10T22:07:34.204Z,75.29
2018-07-10T22:10:05.542Z,75.75
2018-07-10T22:12:40.277Z,75.35
2018-07-10T22:15:10.395Z,75.80
2018-07-10T22:17:40.481Z,75.87
2018-07-10T22:20:10.735Z,75.49
2018-07-10T22:22:40.658Z,75.42
2018-07-10T22:25:11.122Z,75.83
2018-07-10T22:27:43.813Z,75.33
2018-07-10T22:30:21.280Z,75.31
2018-07-10T22:32:57.462Z,76.25
2018-07-10T22:35:27.708Z,75.98
2018-07-10T22:37:58.725Z,76.15
2018-07-10T22:40:28.947Z,76.44
2018-07-10T22:42:58.998Z,77.02
2018-07-10T22:45:30.079Z,77.09
2018-07-10T22:47:59.911Z,77.45
2018-07-10T22:50:30.265Z,77.37
2018-07-10T22:53:01.929Z,78.19
2018-07-10T22:55:33.104Z,77.94
2018-07-10T22:58:07.193Z,78.50
2018-07-10T23:00:38.498Z,78.26
2018-07-10T23:03:25.090Z,78.60
2018-07-10T23:05:55.730Z,78.62
2018-07-10T23:08:31.351Z,77.66
2018-07-10T23:11:02.496Z,78.01
2018-07-10T23:13:33.048Z,77.71
2018-07-10T23:16:02.873Z,76.90
2018-07-10T23:18:32.589Z,77.20
2018-07-10T23:21:02.082Z,77.05
2018-07-10T23:23:31.822Z,77.56
2018-07-10T23:26:01.426Z,77.67
2018-07-10T23:28:31.221Z,78.06
2018-07-10T23:31:00.965Z,77.55
2018-07-10T23:33:30.524Z,77.91
2018-07-10T23:36:02.559Z,77.84
2018-07-10T23:38:39.472Z,77.04
2018-07-10T23:41:17.001Z,77.02
2018-07-10T23:43:48.257Z,77.38
2018-07-10T23:46:30.987Z,77.11
2018-07-10T23:49:17.136Z,77.52
2018-07-10T23:51:57.618Z,77.09
2018-07-10T23:54:27.599Z,77.72
2018-07-10T23:56:57.810Z,77.41
2018-07-10T23:59:28.183Z,77.74
